sensor_id;sensor_type;location;lat;lon;timestamp;pressure;altitude;pressure_sealevel;temperature;humidity
64354;BME280;50681;53.334;-6.536;2023-04-03T00:00:42;66587.59;;;-147.51;100.00
64354;BME280;50681;53.334;-6.536;2023-04-03T00:05:03;102231.56;;;9.17;100.00
64354;BME280;50681;53.334;-6.536;2023-04-03T00:07:29;102234.16;;;9.12;100.00
64354;BME280;50681;53.334;-6.536;2023-04-03T00:09:55;102246.56;;;9.13;100.00
64354;BME280;50681;53.334;-6.536;2023-04-03T00:12:21;102218.72;;;8.95;100.00
64354;BME280;50681;53.334;-6.536;2023-04-03T00:14:46;102234.25;;;9.05;100.00
64354;BME280;50681;53.334;-6.536;2023-04-03T00:17:12;102230.19;;;9.03;100.00
64354;BME280;50681;53.334;-6.536;2023-04-03T00:19:37;102213.91;;;8.86;100.00
64354;BME280;50681;53.334;-6.536;2023-04-03T00:22:03;102220.59;;;8.83;100.00
64354;BME280;50681;53.334;-6.536;2023-04-03T00:24:37;102183.22;;;8.87;100.00
64354;BME280;50681;53.334;-6.536;2023-04-03T00:27:07;102192.63;;;8.72;100.00
64354;BME280;50681;53.334;-6.536;2023-04-03T00:29:46;102184.19;;;8.80;100.00
64354;BME280;50681;53.334;-6.536;2023-04-03T00:32:12;102174.72;;;8.54;100.00
64354;BME280;50681;53.334;-6.536;2023-04-03T00:34:38;102184.44;;;8.67;100.00
64354;BME280;50681;53.334;-6.536;2023-04-03T00:37:03;102178.81;;;8.57;100.00
64354;BME280;50681;53.334;-6.536;2023-04-03T00:39:35;102212.97;;;8.92;100.00
64354;BME280;50681;53.334;-6.536;2023-04-03T00:42:00;102179.06;;;8.55;100.00
64354;BME280;50681;53.334;-6.536;2023-04-03T00:47:02;102208.66;;;8.79;100.00
64354;BME280;50681;53.334;-6.536;2023-04-03T00:49:32;102214.88;;;8.67;100.00
64354;BME280;50681;53.334;-6.536;2023-04-03T00:51:58;102198.72;;;8.56;100.00
64354;BME280;50681;53.334;-6.536;2023-04-03T00:54:25;102195.53;;;8.47;100.00
64354;BME280;50681;53.334;-6.536;2023-04-03T00:56:52;102215.22;;;8.59;100.00
64354;BME280;50681;53.334;-6.536;2023-04-03T00:59:31;102213.34;;;8.72;100.00
64354;BME280;50681;53.334;-6.536;2023-04-03T01:01:58;102201.13;;;8.45;100.00
64354;BME280;50681;53.334;-6.536;2023-04-03T01:04:31;102202.91;;;8.75;100.00
64354;BME280;50681;53.334;-6.536;2023-04-03T01:07:18;102177.16;;;8.32;100.00
64354;BME280;50681;53.334;-6.536;2023-04-03T01:09:48;102207.50;;;8.51;100.00
64354;BME280;50681;53.334;-6.536;2023-04-03T01:12:21;102212.50;;;8.47;100.00
64354;BME280;50681;53.334;-6.536;2023-04-03T01:14:57;102174.91;;;8.29;100.00
64354;BME280;50681;53.334;-6.536;2023-04-03T01:17:36;102177.50;;;8.23;100.00
64354;BME280;50681;53.334;-6.536;2023-04-03T01:25:39;102192.25;;;8.33;100.00
64354;BME280;50681;53.334;-6.536;2023-04-03T01:28:07;102191.06;;;8.17;100.00
64354;BME280;50681;53.334;-6.536;2023-04-03T01:30:43;102194.69;;;8.22;100.00
64354;BME280;50681;53.334;-6.536;2023-04-03T01:33:11;102212.59;;;8.17;100.00
64354;BME280;50681;53.334;-6.536;2023-04-03T01:35:37;102183.91;;;7.99;100.00
64354;BME280;50681;53.334;-6.536;2023-04-03T01:38:06;102181.66;;;7.95;100.00
64354;BME280;50681;53.334;-6.536;2023-04-03T01:40:32;102209.78;;;8.12;100.00
64354;BME280;50681;53.334;-6.536;2023-04-03T01:43:00;102173.72;;;7.89;100.00
64354;BME280;50681;53.334;-6.536;2023-04-03T01:45:28;102192.22;;;8.09;100.00
64354;BME280;50681;53.334;-6.536;2023-04-03T01:47:54;102185.19;;;7.96;100.00
64354;BME280;50681;53.334;-6.536;2023-04-03T01:50:22;102190.56;;;7.96;100.00
64354;BME280;50681;53.334;-6.536;2023-04-03T01:52:47;102160.72;;;7.74;100.00
64354;BME280;50681;53.334;-6.536;2023-04-03T01:55:19;102166.22;;;7.91;100.00
64354;BME280;50681;53.334;-6.536;2023-04-03T01:57:45;102158.28;;;7.84;100.00
64354;BME280;50681;53.334;-6.536;2023-04-03T02:00:11;102193.97;;;8.03;100.00
64354;BME280;50681;53.334;-6.536;2023-04-03T02:02:39;102179.34;;;7.99;100.00
64354;BME280;50681;53.334;-6.536;2023-04-03T02:05:08;102187.16;;;8.01;100.00
64354;BME280;50681;53.334;-6.536;2023-04-03T02:07:34;102135.56;;;7.68;100.00
64354;BME280;50681;53.334;-6.536;2023-04-03T02:09:59;102150.75;;;7.74;100.00
64354;BME280;50681;53.334;-6.536;2023-04-03T02:12:25;102159.34;;;7.83;100.00
64354;BME280;50681;53.334;-6.536;2023-04-03T02:14:50;102157.13;;;7.92;100.00
64354;BME280;50681;53.334;-6.536;2023-04-03T02:17:16;102173.38;;;7.97;100.00
64354;BME280;50681;53.334;-6.536;2023-04-03T02:19:41;102146.34;;;7.92;100.00
64354;BME280;50681;53.334;-6.536;2023-04-03T02:22:07;102158.03;;;7.98;100.00
64354;BME280;50681;53.334;-6.536;2023-04-03T02:24:40;102157.03;;;8.22;100.00
64354;BME280;50681;53.334;-6.536;2023-04-03T02:27:06;102145.56;;;7.91;100.00
64354;BME280;50681;53.334;-6.536;2023-04-03T02:29:32;102136.44;;;7.92;100.00
64354;BME280;50681;53.334;-6.536;2023-04-03T02:32:00;102109.63;;;7.86;100.00
64354;BME280;50681;53.334;-6.536;2023-04-03T02:34:26;102125.50;;;7.75;100.00
64354;BME280;50681;53.334;-6.536;2023-04-03T02:36:54;102110.78;;;7.66;100.00
64354;BME280;50681;53.334;-6.536;2023-04-03T02:39:19;102119.41;;;7.68;100.00
64354;BME280;50681;53.334;-6.536;2023-04-03T02:41:45;102128.56;;;7.79;100.00
64354;BME280;50681;53.334;-6.536;2023-04-03T02:44:11;102101.66;;;7.67;100.00
64354;BME280;50681;53.334;-6.536;2023-04-03T02:46:43;102130.22;;;7.92;100.00
64354;BME280;50681;53.334;-6.536;2023-04-03T02:49:08;102071.22;;;7.43;100.00
64354;BME280;50681;53.334;-6.536;2023-04-03T02:51:34;102103.88;;;7.70;100.00
64354;BME280;50681;53.334;-6.536;2023-04-03T02:53:59;102103.28;;;7.68;100.00
64354;BME280;50681;53.334;-6.536;2023-04-03T02:56:32;102075.44;;;7.50;100.00
64354;BME280;50681;53.334;-6.536;2023-04-03T02:59:00;102086.34;;;7.68;100.00
64354;BME280;50681;53.334;-6.536;2023-04-03T03:01:31;102070.78;;;7.58;100.00
64354;BME280;50681;53.334;-6.536;2023-04-03T03:03:59;102088.41;;;7.42;100.00
64354;BME280;50681;53.334;-6.536;2023-04-03T03:06:25;102081.00;;;7.37;100.00
64354;BME280;50681;53.334;-6.536;2023-04-03T03:08:50;102086.56;;;7.54;100.00
64354;BME280;50681;53.334;-6.536;2023-04-03T03:11:18;102096.41;;;7.72;100.00
64354;BME280;50681;53.334;-6.536;2023-04-03T03:13:44;102055.78;;;7.38;100.00
64354;BME280;50681;53.334;-6.536;2023-04-03T03:16:09;102105.97;;;7.68;100.00
64354;BME280;50681;53.334;-6.536;2023-04-03T03:18:36;102057.88;;;7.36;100.00
64354;BME280;50681;53.334;-6.536;2023-04-03T03:21:03;102069.09;;;7.33;100.00
64354;BME280;50681;53.334;-6.536;2023-04-03T03:23:32;102067.25;;;7.45;100.00
64354;BME280;50681;53.334;-6.536;2023-04-03T03:26:00;102089.84;;;7.68;100.00
64354;BME280;50681;53.334;-6.536;2023-04-03T03:28:26;102075.81;;;7.54;100.00
64354;BME280;50681;53.334;-6.536;2023-04-03T03:30:52;102087.50;;;7.60;100.00
64354;BME280;50681;53.334;-6.536;2023-04-03T03:33:18;102068.44;;;7.49;100.00
64354;BME280;50681;53.334;-6.536;2023-04-03T03:35:44;102078.84;;;7.58;100.00
64354;BME280;50681;53.334;-6.536;2023-04-03T03:38:10;102101.56;;;7.74;100.00
64354;BME280;50681;53.334;-6.536;2023-04-03T03:40:35;102074.88;;;7.60;100.00
64354;BME280;50681;53.334;-6.536;2023-04-03T03:43:01;102106.00;;;7.80;100.00
64354;BME280;50681;53.334;-6.536;2023-04-03T03:48:40;102097.03;;;7.86;100.00
64354;BME280;50681;53.334;-6.536;2023-04-03T03:51:06;102082.88;;;7.79;100.00
64354;BME280;50681;53.334;-6.536;2023-04-03T03:53:31;102092.22;;;7.88;100.00
64354;BME280;50681;53.334;-6.536;2023-04-03T03:55:56;102078.78;;;7.88;100.00
64354;BME280;50681;53.334;-6.536;2023-04-03T03:58:22;102072.09;;;7.91;100.00
64354;BME280;50681;53.334;-6.536;2023-04-03T04:00:47;102078.06;;;7.93;100.00
64354;BME280;50681;53.334;-6.536;2023-04-03T04:03:13;102066.94;;;7.77;100.00
64354;BME280;50681;53.334;-6.536;2023-04-03T04:05:38;102090.91;;;8.03;100.00
64354;BME280;50681;53.334;-6.536;2023-04-03T04:08:11;102063.44;;;8.01;100.00
64354;BME280;50681;53.334;-6.536;2023-04-03T04:10:37;102077.13;;;7.99;100.00
64354;BME280;50681;53.334;-6.536;2023-04-03T04:13:07;102080.97;;;8.15;100.00
64354;BME280;50681;53.334;-6.536;2023-04-03T04:15:34;102070.22;;;8.03;100.00
64354;BME280;50681;53.334;-6.536;2023-04-03T04:18:00;102071.63;;;7.94;100.00
64354;BME280;50681;53.334;-6.536;2023-04-03T04:20:25;102086.97;;;8.05;100.00
64354;BME280;50681;53.334;-6.536;2023-04-03T04:22:51;102096.19;;;8.09;100.00
64354;BME280;50681;53.334;-6.536;2023-04-03T04:25:16;102087.66;;;8.13;100.00
64354;BME280;50681;53.334;-6.536;2023-04-03T04:27:41;102091.03;;;8.08;100.00
64354;BME280;50681;53.334;-6.536;2023-04-03T04:30:08;102080.75;;;8.05;100.00
64354;BME280;50681;53.334;-6.536;2023-04-03T04:32:34;102092.56;;;8.04;100.00
64354;BME280;50681;53.334;-6.536;2023-04-03T04:35:05;102061.31;;;8.03;100.00
64354;BME280;50681;53.334;-6.536;2023-04-03T04:37:31;102059.00;;;7.71;100.00
64354;BME280;50681;53.334;-6.536;2023-04-03T04:39:56;102067.19;;;7.76;100.00
64354;BME280;50681;53.334;-6.536;2023-04-03T04:42:22;102067.53;;;7.79;100.00
64354;BME280;50681;53.334;-6.536;2023-04-03T04:44:47;102058.75;;;7.72;100.00
64354;BME280;50681;53.334;-6.536;2023-04-03T04:47:13;102089.88;;;7.92;100.00
64354;BME280;50681;53.334;-6.536;2023-04-03T04:49:38;102086.47;;;7.85;100.00
64354;BME280;50681;53.334;-6.536;2023-04-03T04:52:04;102073.50;;;7.82;100.00
64354;BME280;50681;53.334;-6.536;2023-04-03T04:54:32;102061.91;;;7.69;100.00
64354;BME280;50681;53.334;-6.536;2023-04-03T04:56:57;102082.16;;;7.84;100.00
64354;BME280;50681;53.334;-6.536;2023-04-03T04:59:23;102080.19;;;7.79;100.00
64354;BME280;50681;53.334;-6.536;2023-04-03T05:01:48;102055.34;;;7.65;100.00
64354;BME280;50681;53.334;-6.536;2023-04-03T05:04:14;102069.63;;;7.77;100.00
64354;BME280;50681;53.334;-6.536;2023-04-03T05:06:40;102068.25;;;7.75;100.00
64354;BME280;50681;53.334;-6.536;2023-04-03T05:09:05;102082.53;;;7.87;100.00
64354;BME280;50681;53.334;-6.536;2023-04-03T05:11:31;102073.16;;;7.90;100.00
64354;BME280;50681;53.334;-6.536;2023-04-03T05:13:57;102078.91;;;7.93;100.00
64354;BME280;50681;53.334;-6.536;2023-04-03T05:16:22;102075.25;;;7.88;100.00
64354;BME280;50681;53.334;-6.536;2023-04-03T05:18:48;102067.91;;;7.83;100.00
64354;BME280;50681;53.334;-6.536;2023-04-03T05:21:13;102065.66;;;7.92;100.00
64354;BME280;50681;53.334;-6.536;2023-04-03T05:23:38;102069.66;;;8.01;100.00
64354;BME280;50681;53.334;-6.536;2023-04-03T05:26:06;102079.34;;;8.14;100.00
64354;BME280;50681;53.334;-6.536;2023-04-03T05:28:34;102060.53;;;8.02;100.00
64354;BME280;50681;53.334;-6.536;2023-04-03T05:31:00;102078.41;;;8.08;100.00
64354;BME280;50681;53.334;-6.536;2023-04-03T05:33:26;102089.88;;;8.16;100.00
64354;BME280;50681;53.334;-6.536;2023-04-03T05:35:52;102093.28;;;8.23;100.00
64354;BME280;50681;53.334;-6.536;2023-04-03T05:38:18;102080.25;;;8.56;100.00
64354;BME280;50681;53.334;-6.536;2023-04-03T05:40:43;102057.69;;;8.09;100.00
64354;BME280;50681;53.334;-6.536;2023-04-03T05:43:09;102071.03;;;8.16;100.00
64354;BME280;50681;53.334;-6.536;2023-04-03T05:45:34;102071.84;;;8.16;100.00
64354;BME280;50681;53.334;-6.536;2023-04-03T05:48:00;102069.63;;;8.25;100.00
64354;BME280;50681;53.334;-6.536;2023-04-03T05:50:25;102048.34;;;8.12;100.00
64354;BME280;50681;53.334;-6.536;2023-04-03T05:52:52;102057.22;;;8.24;100.00
64354;BME280;50681;53.334;-6.536;2023-04-03T05:55:21;102057.56;;;8.28;100.00
64354;BME280;50681;53.334;-6.536;2023-04-03T05:57:46;102072.53;;;8.23;100.00
64354;BME280;50681;53.334;-6.536;2023-04-03T06:00:15;102079.94;;;8.52;100.00
64354;BME280;50681;53.334;-6.536;2023-04-03T06:02:41;102060.72;;;8.36;100.00
64354;BME280;50681;53.334;-6.536;2023-04-03T06:05:08;102074.06;;;8.55;100.00
64354;BME280;50681;53.334;-6.536;2023-04-03T06:07:34;102071.25;;;8.50;100.00
64354;BME280;50681;53.334;-6.536;2023-04-03T06:10:00;102055.53;;;8.59;100.00
64354;BME280;50681;53.334;-6.536;2023-04-03T06:12:26;102066.19;;;8.65;100.00
64354;BME280;50681;53.334;-6.536;2023-04-03T06:14:54;102076.59;;;8.74;100.00
64354;BME280;50681;53.334;-6.536;2023-04-03T06:17:19;102054.00;;;8.63;100.00
64354;BME280;50681;53.334;-6.536;2023-04-03T06:19:45;102063.56;;;8.82;100.00
64354;BME280;50681;53.334;-6.536;2023-04-03T06:22:13;102068.91;;;8.94;100.00
64354;BME280;50681;53.334;-6.536;2023-04-03T06:24:38;102044.00;;;8.87;100.00
64354;BME280;50681;53.334;-6.536;2023-04-03T06:27:04;102065.94;;;9.08;100.00
64354;BME280;50681;53.334;-6.536;2023-04-03T06:29:30;102075.09;;;9.24;100.00
64354;BME280;50681;53.334;-6.536;2023-04-03T06:31:56;102082.78;;;9.32;100.00
64354;BME280;50681;53.334;-6.536;2023-04-03T06:34:21;102038.00;;;9.14;100.00
64354;BME280;50681;53.334;-6.536;2023-04-03T06:36:47;102041.13;;;9.23;100.00
64354;BME280;50681;53.334;-6.536;2023-04-03T06:39:17;102046.22;;;9.53;100.00
64354;BME280;50681;53.334;-6.536;2023-04-03T06:41:43;102080.06;;;9.78;100.00
64354;BME280;50681;53.334;-6.536;2023-04-03T06:44:09;102052.66;;;9.87;100.00
64354;BME280;50681;53.334;-6.536;2023-04-03T06:46:37;102078.03;;;10.25;100.00
64354;BME280;50681;53.334;-6.536;2023-04-03T06:49:03;102058.72;;;10.16;100.00
64354;BME280;50681;53.334;-6.536;2023-04-03T06:51:30;102065.06;;;10.44;100.00
64354;BME280;50681;53.334;-6.536;2023-04-03T06:53:58;102083.69;;;10.90;100.00
64354;BME280;50681;53.334;-6.536;2023-04-03T06:56:24;102064.53;;;10.69;100.00
64354;BME280;50681;53.334;-6.536;2023-04-03T06:58:51;102054.41;;;10.82;100.00
64354;BME280;50681;53.334;-6.536;2023-04-03T07:01:19;102059.56;;;11.11;100.00
64354;BME280;50681;53.334;-6.536;2023-04-03T07:03:45;102068.34;;;11.23;100.00
64354;BME280;50681;53.334;-6.536;2023-04-03T07:06:12;102079.91;;;11.46;100.00
64354;BME280;50681;53.334;-6.536;2023-04-03T07:08:39;102057.63;;;11.33;100.00
64354;BME280;50681;53.334;-6.536;2023-04-03T07:11:05;102084.34;;;11.57;100.00
64354;BME280;50681;53.334;-6.536;2023-04-03T07:13:31;102086.28;;;11.62;100.00
64354;BME280;50681;53.334;-6.536;2023-04-03T07:15:58;102084.97;;;11.70;100.00
64354;BME280;50681;53.334;-6.536;2023-04-03T07:18:24;102093.16;;;11.80;100.00
64354;BME280;50681;53.334;-6.536;2023-04-03T07:20:50;102087.78;;;11.85;100.00
64354;BME280;50681;53.334;-6.536;2023-04-03T07:23:16;102070.75;;;11.85;100.00
64354;BME280;50681;53.334;-6.536;2023-04-03T07:25:46;102089.63;;;12.12;100.00
64354;BME280;50681;53.334;-6.536;2023-04-03T07:28:12;102081.94;;;11.99;100.00
64354;BME280;50681;53.334;-6.536;2023-04-03T07:30:44;102083.75;;;12.26;100.00
64354;BME280;50681;53.334;-6.536;2023-04-03T07:33:11;102080.16;;;12.10;100.00
64354;BME280;50681;53.334;-6.536;2023-04-03T07:35:37;102088.94;;;12.32;100.00
64354;BME280;50681;53.334;-6.536;2023-04-03T07:38:02;102079.16;;;12.26;100.00
64354;BME280;50681;53.334;-6.536;2023-04-03T07:40:28;102092.44;;;12.33;100.00
64354;BME280;50681;53.334;-6.536;2023-04-03T07:42:53;102099.63;;;12.60;100.00
64354;BME280;50681;53.334;-6.536;2023-04-03T07:45:20;102106.25;;;13.00;100.00
64354;BME280;50681;53.334;-6.536;2023-04-03T07:47:45;102090.47;;;12.76;100.00
64354;BME280;50681;53.334;-6.536;2023-04-03T07:50:10;102104.63;;;12.94;100.00
64354;BME280;50681;53.334;-6.536;2023-04-03T07:52:36;102104.09;;;13.02;100.00
64354;BME280;50681;53.334;-6.536;2023-04-03T07:55:01;102087.84;;;13.13;100.00
64354;BME280;50681;53.334;-6.536;2023-04-03T07:57:27;102099.25;;;13.20;100.00
64354;BME280;50681;53.334;-6.536;2023-04-03T07:59:55;102093.25;;;13.07;100.00
64354;BME280;50681;53.334;-6.536;2023-04-03T08:02:27;102103.84;;;13.30;100.00
64354;BME280;50681;53.334;-6.536;2023-04-03T08:04:53;102108.75;;;13.22;100.00
64354;BME280;50681;53.334;-6.536;2023-04-03T08:07:21;102107.72;;;13.44;100.00
64354;BME280;50681;53.334;-6.536;2023-04-03T08:09:47;102092.75;;;13.21;100.00
64354;BME280;50681;53.334;-6.536;2023-04-03T08:12:12;102078.09;;;13.17;100.00
64354;BME280;50681;53.334;-6.536;2023-04-03T08:14:39;102098.72;;;13.23;100.00
64354;BME280;50681;53.334;-6.536;2023-04-03T08:17:06;102117.69;;;13.23;100.00
64354;BME280;50681;53.334;-6.536;2023-04-03T08:19:34;102110.09;;;13.25;100.00
64354;BME280;50681;53.334;-6.536;2023-04-03T08:22:00;102103.31;;;13.28;100.00
64354;BME280;50681;53.334;-6.536;2023-04-03T08:24:28;102086.25;;;13.27;100.00
64354;BME280;50681;53.334;-6.536;2023-04-03T08:29:25;102113.41;;;13.48;100.00
64354;BME280;50681;53.334;-6.536;2023-04-03T08:31:53;102110.72;;;13.69;100.00
64354;BME280;50681;53.334;-6.536;2023-04-03T08:36:23;102108.78;;;13.85;100.00
64354;BME280;50681;53.334;-6.536;2023-04-03T08:38:58;102111.50;;;14.00;100.00
64354;BME280;50681;53.334;-6.536;2023-04-03T08:41:34;102122.00;;;14.43;100.00
64354;BME280;50681;53.334;-6.536;2023-04-03T08:49:43;102112.69;;;14.70;100.00
64354;BME280;50681;53.334;-6.536;2023-04-03T08:52:55;102123.47;;;14.91;100.00
64354;BME280;50681;53.334;-6.536;2023-04-03T08:55:47;102120.72;;;14.96;100.00
64354;BME280;50681;53.334;-6.536;2023-04-03T09:00:47;102091.22;;;15.19;100.00
64354;BME280;50681;53.334;-6.536;2023-04-03T09:03:16;102106.41;;;15.25;100.00
64354;BME280;50681;53.334;-6.536;2023-04-03T09:08:45;102100.88;;;15.35;100.00
64354;BME280;50681;53.334;-6.536;2023-04-03T09:11:16;102118.28;;;15.39;100.00
64354;BME280;50681;53.334;-6.536;2023-04-03T09:16:55;102123.97;;;15.78;100.00
64354;BME280;50681;53.334;-6.536;2023-04-03T09:19:41;102109.53;;;15.77;100.00
64354;BME280;50681;53.334;-6.536;2023-04-03T09:22:22;102121.28;;;15.72;100.00
64354;BME280;50681;53.334;-6.536;2023-04-03T09:25:10;102094.38;;;15.31;100.00
64354;BME280;50681;53.334;-6.536;2023-04-03T09:27:38;102087.25;;;15.40;100.00
64354;BME280;50681;53.334;-6.536;2023-04-03T09:30:04;102101.94;;;15.74;100.00
64354;BME280;50681;53.334;-6.536;2023-04-03T09:32:34;102102.19;;;15.78;100.00
64354;BME280;50681;53.334;-6.536;2023-04-03T09:35:03;102095.56;;;15.89;100.00
64354;BME280;50681;53.334;-6.536;2023-04-03T09:37:41;102105.94;;;15.87;100.00
64354;BME280;50681;53.334;-6.536;2023-04-03T09:40:29;102098.16;;;15.70;100.00
64354;BME280;50681;53.334;-6.536;2023-04-03T09:42:58;102095.50;;;15.60;100.00
64354;BME280;50681;53.334;-6.536;2023-04-03T09:51:02;102106.19;;;15.56;100.00
64354;BME280;50681;53.334;-6.536;2023-04-03T09:53:42;102110.66;;;15.71;100.00
64354;BME280;50681;53.334;-6.536;2023-04-03T09:56:20;102085.94;;;15.67;100.00
64354;BME280;50681;53.334;-6.536;2023-04-03T09:59:34;102102.84;;;15.94;100.00
64354;BME280;50681;53.334;-6.536;2023-04-03T10:01:43;102100.19;;;16.13;100.00
64354;BME280;50681;53.334;-6.536;2023-04-03T10:04:20;102094.28;;;16.06;100.00
64354;BME280;50681;53.334;-6.536;2023-04-03T10:06:54;102088.44;;;16.42;100.00
64354;BME280;50681;53.334;-6.536;2023-04-03T10:14:39;102085.66;;;16.23;100.00
64354;BME280;50681;53.334;-6.536;2023-04-03T10:19:57;102087.84;;;16.45;100.00
64354;BME280;50681;53.334;-6.536;2023-04-03T10:25:08;102092.97;;;16.27;100.00
64354;BME280;50681;53.334;-6.536;2023-04-03T10:36:18;102096.56;;;16.23;100.00
64354;BME280;50681;53.334;-6.536;2023-04-03T10:44:26;102062.56;;;16.15;100.00
64354;BME280;50681;53.334;-6.536;2023-04-03T10:47:24;102085.78;;;16.12;100.00
64354;BME280;50681;53.334;-6.536;2023-04-03T10:55:34;102104.56;;;16.82;100.00
64354;BME280;50681;53.334;-6.536;2023-04-03T10:58:02;102091.72;;;16.82;100.00
64354;BME280;50681;53.334;-6.536;2023-04-03T11:00:41;102095.91;;;16.99;100.00
64354;BME280;50681;53.334;-6.536;2023-04-03T11:03:29;102076.03;;;16.93;100.00
64354;BME280;50681;53.334;-6.536;2023-04-03T11:05:57;102096.50;;;17.15;100.00
64354;BME280;50681;53.334;-6.536;2023-04-03T11:08:33;102086.72;;;16.89;100.00
64354;BME280;50681;53.334;-6.536;2023-04-03T11:11:05;102063.66;;;16.82;100.00
64354;BME280;50681;53.334;-6.536;2023-04-03T11:13:43;102085.78;;;17.18;100.00
64354;BME280;50681;53.334;-6.536;2023-04-03T11:16:16;102059.38;;;16.75;100.00
64354;BME280;50681;53.334;-6.536;2023-04-03T11:18:52;102047.72;;;16.89;100.00
64354;BME280;50681;53.334;-6.536;2023-04-03T11:21:24;102082.53;;;17.16;100.00
64354;BME280;50681;53.334;-6.536;2023-04-03T11:23:56;102052.94;;;16.85;100.00
64354;BME280;50681;53.334;-6.536;2023-04-03T11:26:27;102048.44;;;16.56;100.00
64354;BME280;50681;53.334;-6.536;2023-04-03T11:29:07;102063.34;;;16.83;100.00
64354;BME280;50681;53.334;-6.536;2023-04-03T11:34:34;102073.47;;;17.02;100.00
64354;BME280;50681;53.334;-6.536;2023-04-03T11:37:11;102083.28;;;16.84;100.00
64354;BME280;50681;53.334;-6.536;2023-04-03T11:39:38;102076.69;;;16.66;100.00
64354;BME280;50681;53.334;-6.536;2023-04-03T11:44:39;102076.47;;;16.81;100.00
64354;BME280;50681;53.334;-6.536;2023-04-03T11:47:09;102087.19;;;16.97;100.00
64354;BME280;50681;53.334;-6.536;2023-04-03T11:58:03;102067.34;;;17.10;100.00
64354;BME280;50681;53.334;-6.536;2023-04-03T12:05:51;102082.81;;;17.67;100.00
64354;BME280;50681;53.334;-6.536;2023-04-03T12:08:27;102081.63;;;17.73;100.00
64354;BME280;50681;53.334;-6.536;2023-04-03T12:11:31;102074.81;;;18.18;100.00
64354;BME280;50681;53.334;-6.536;2023-04-03T12:19:02;102071.06;;;18.42;100.00
64354;BME280;50681;53.334;-6.536;2023-04-03T12:29:17;102041.97;;;18.46;100.00
64354;BME280;50681;53.334;-6.536;2023-04-03T12:43:28;102057.19;;;18.38;100.00
64354;BME280;50681;53.334;-6.536;2023-04-03T12:48:52;102048.47;;;18.22;100.00
64354;BME280;50681;53.334;-6.536;2023-04-03T12:51:44;102005.75;;;17.98;100.00
64354;BME280;50681;53.334;-6.536;2023-04-03T12:54:15;102036.72;;;18.35;100.00
64354;BME280;50681;53.334;-6.536;2023-04-03T12:56:41;102037.03;;;18.20;100.00
64354;BME280;50681;53.334;-6.536;2023-04-03T12:59:24;102020.72;;;17.87;100.00
64354;BME280;50681;53.334;-6.536;2023-04-03T13:02:01;102046.72;;;17.98;100.00
64354;BME280;50681;53.334;-6.536;2023-04-03T13:04:38;102053.88;;;18.13;100.00
64354;BME280;50681;53.334;-6.536;2023-04-03T13:07:03;102052.53;;;18.25;100.00
64354;BME280;50681;53.334;-6.536;2023-04-03T13:09:31;102050.91;;;18.10;100.00
64354;BME280;50681;53.334;-6.536;2023-04-03T13:12:18;102016.09;;;18.15;100.00
64354;BME280;50681;53.334;-6.536;2023-04-03T13:14:58;102046.06;;;18.20;100.00
64354;BME280;50681;53.334;-6.536;2023-04-03T13:17:25;102027.50;;;18.31;100.00
64354;BME280;50681;53.334;-6.536;2023-04-03T13:19:56;102023.53;;;18.51;100.00
64354;BME280;50681;53.334;-6.536;2023-04-03T13:22:36;102042.75;;;18.60;100.00
64354;BME280;50681;53.334;-6.536;2023-04-03T13:25:11;102040.78;;;18.38;100.00
64354;BME280;50681;53.334;-6.536;2023-04-03T13:27:41;102028.03;;;18.33;100.00
64354;BME280;50681;53.334;-6.536;2023-04-03T13:30:31;102019.19;;;18.36;100.00
64354;BME280;50681;53.334;-6.536;2023-04-03T13:33:04;101990.28;;;18.21;100.00
64354;BME280;50681;53.334;-6.536;2023-04-03T13:35:39;101996.50;;;18.50;100.00
64354;BME280;50681;53.334;-6.536;2023-04-03T13:40:49;101996.72;;;18.40;99.08
64354;BME280;50681;53.334;-6.536;2023-04-03T13:43:24;102026.63;;;18.73;93.56
64354;BME280;50681;53.334;-6.536;2023-04-03T13:48:54;102004.13;;;18.39;95.19
64354;BME280;50681;53.334;-6.536;2023-04-03T13:51:27;101979.81;;;18.38;92.60
64354;BME280;50681;53.334;-6.536;2023-04-03T13:54:17;101992.06;;;18.26;94.77
64354;BME280;50681;53.334;-6.536;2023-04-03T13:56:43;102011.72;;;18.42;97.89
64354;BME280;50681;53.334;-6.536;2023-04-03T14:02:08;102021.56;;;18.66;93.17
64354;BME280;50681;53.334;-6.536;2023-04-03T14:07:18;101987.31;;;18.69;90.35
64354;BME280;50681;53.334;-6.536;2023-04-03T14:09:45;101999.94;;;18.42;95.46
64354;BME280;50681;53.334;-6.536;2023-04-03T14:12:27;101986.03;;;18.15;93.02
64354;BME280;50681;53.334;-6.536;2023-04-03T14:14:55;101983.38;;;17.96;97.25
64354;BME280;50681;53.334;-6.536;2023-04-03T14:17:24;102007.47;;;18.22;97.31
64354;BME280;50681;53.334;-6.536;2023-04-03T14:19:51;101956.19;;;18.05;95.75
64354;BME280;50681;53.334;-6.536;2023-04-03T14:22:28;101960.31;;;18.16;92.84
64354;BME280;50681;53.334;-6.536;2023-04-03T14:24:55;101969.03;;;18.18;95.19
64354;BME280;50681;53.334;-6.536;2023-04-03T14:27:28;101988.06;;;18.60;89.91
64354;BME280;50681;53.334;-6.536;2023-04-03T14:29:58;101968.41;;;18.21;87.47
64354;BME280;50681;53.334;-6.536;2023-04-03T14:32:31;101986.28;;;18.42;87.04
64354;BME280;50681;53.334;-6.536;2023-04-03T14:34:57;101971.03;;;18.27;90.14
64354;BME280;50681;53.334;-6.536;2023-04-03T14:37:32;101965.41;;;18.09;86.95
64354;BME280;50681;53.334;-6.536;2023-04-03T14:40:01;101944.13;;;18.06;87.19
64354;BME280;50681;53.334;-6.536;2023-04-03T14:42:41;101951.81;;;18.55;84.54
64354;BME280;50681;53.334;-6.536;2023-04-03T14:45:21;101958.47;;;19.08;84.09
64354;BME280;50681;53.334;-6.536;2023-04-03T14:47:58;101954.13;;;19.07;87.01
64354;BME280;50681;53.334;-6.536;2023-04-03T14:50:28;101965.69;;;18.81;84.50
64354;BME280;50681;53.334;-6.536;2023-04-03T14:53:01;101938.81;;;18.60;80.86